Location:  
MeteoStar


Sort by weather type Sort by elevation Sort by visibility Sort from west to east north Sort from north to south Alphabetically Sort from strongest wind speed Sort from lowest to highest pressure Sort from highest to lowest dew point temperature Sort coolest temperatures to warmest Sort warm temperatures to coolest
 Metric

Current Observations for United Kingdom sorted from warmest to coolest

South Uist Range06:00ZNot Avail.55 4025994.5ESE 15 Gusting to 28 5532
London City Airport06:20ZNot Avail.55 504993.1ENE 5 5516
Biggin Hill 06:20ZNot Avail.55 484993.2N 3 55600
Aultbea06:00ZNot Avail.54 3718997.2ESE 5 5336
Exeter Airport06:20ZPartly Cloudy54 504990.1ESE 5 5398
Pembrey Sands06:00ZNot Avail.54 522.25990.7E 5 539
Lydd Airport 06:20ZClear54 525993.1N 2 549
London / Gatwick Airport06:20ZHaze54 502.75992.1E 5 53203
Cardiff-Wales Airport06:20ZClear54 484991.1E 7 52219
Yeovilton06:00ZHaze54 494991.2SE 5 5375
Saint Catherines Point06:00ZNot Avail.53 490.37991.4E 7 5152
Langdon Bay06:00ZNot Avail.53 484994.0SW 6 51383
Mumbles06:00ZNot Avail.53 497991.2ESE 10 50114
Milford Haven06:00ZNot Avail.53 527990.2NE 2 53144
Northolt06:00ZHaze53 484992.7ESE 2 53124
Middle Wallop06:00ZHaze53 464991.9E 4 52298
Aberporth06:00ZLight Showers53 495990.0S 7 51436
London / Heathrow Airport06:00ZHaze53 473992.7SE 5 5278
Shoreham Airport06:00ZNot Avail.53 514992.2N 4 526
Bournemouth Airport06:00ZLight Showers53 502.5991.4E 2 5336
Chivenor06:00ZClear53 509990.2E 4 5226
Castlederg06:00ZClear52 4311991.4E 12 48167
Thorney Island06:00ZClear52 493992ENE 6 5013
Kenley06:00ZClear52 474993.0SE 4 51557
Larkhill06:00ZCloudy52 457991.9ESE 6 50433
Trawscoed06:00ZNot Avail.52 467990.9WSW 2 52206
Aberdaron06:00ZNot Avail.52 458991.2E 7 50311
Saint Bees Head06:00ZNot Avail.52 4410993ENE 7 50406
Manston06:00ZHaze52 483993.9SE 8 49180
Stansted Airport06:20ZHaze52 483993.2SE 6 50347
Norwich Weather Centre06:20ZMist52 523993.1N 1 5245
Machrihanish06:00ZNot Avail.52 429993.2E 25 Gusting to 36 4542
Scatsa / Shetland Island06:20ZNot Avail.52 3941008.1ESE 21 4672
Benbecula06:20ZNot Avail.52 454995.1E 3 5219
Isle Of Man / Ronaldsway Airport06:00ZCloudy52 4212992.2ENE 10 4955
Southend-On-Sea 06:20ZHaze52 483993.1N 3 5249
Farnborough06:00ZNot Avail.52 473992.5SE 5 51213
Southampton / Weather Centre06:20ZClear52 465991.1N 2 5229
Bristol / Lulsgate 06:20ZClear52 465991.1E 6 50620
Eglinton / Londonderr06:20ZNot Avail.52 457992.1E 9 4929
Herstmonceux06:00ZHaze51 492993.0ENE 3 51170
Isle Of Portland06:00ZLight Showers51 500.37991.2E 8 48173
Dunkeswell Aerodrome06:00ZHaze51 462.75991.0ESE 5 49826
Camborne06:00ZCloudy51 4911990S 9 48285
Liscombe06:00ZNot Avail.51 491.12990.7SE 2 511141
Baltasound06:00ZNot Avail.51 4281009.4ESE 17 4549
Marham06:00ZHaze51 472.5993.2SE 1 5175
Odiham06:00ZShowers in Vicinity51 474992.4SE 6 49403
Benson06:00ZHaze51 474992.4NNE 4 50206
West Freugh06:00ZNot Avail.51 4112992.7ENE 13 4636
Walney Island06:00ZNot Avail.51 4314992.9ENE 8 4849
Guernsey Airport06:00ZLight Rain51 495992.2WSW 13 46334
Scilly; Saint MaryS06:00ZNot Avail.51 4717989.0S 22 Gusting to 28 45101
Culdrose06:00ZMostly Cloudy51 497990.2SSW 10 47255
Boscombe Down06:00ZCloudy51 469992ESE 5 49406
High Wicombe Hqstc06:00ZHaze50 463992.7ESE 5 48669
Weybourne06:00ZNot Avail.50 492993.5E 5 4868
Donna Nook06:00ZNot Avail.50 493993.5ENE 11 4626
Lerwick06:00ZPartly Cloudy50 38131007.7ESE 23 Gusting to 34 43269
Wainfleet06:00ZNot Avail.50 493993.2ENE 9 469
Holbeach06:00ZMist50 502993.2E 2 509
Wattisham06:00ZHaze50 472.75993.4SSE 7 47285
Dundee / Riverside06:20ZClear50 454999.1ENE 10 4613
Sumburgh Cape 06:20ZNot Avail.50 4171007.1ESE 17 4416
Jersey Airport06:00ZRain50 504992.4WSW 13 45275
Alderney / Channel Island06:20ZLight Rain50 484992.2W 15 45232
Luton Airport 06:20ZHaze50 463992.2SE 5 48524
Manchester Airport06:20ZClear50 431.37992.2NE 6 48226
Lough Fea06:00ZNot Avail.49 418992.5ESE 5 47738
Cardinham06:00ZClear49 N/A7990.4S 7 656
Crosby06:00ZHaze49 437992.7E 5 4726
Bridlington Mrsc06:00ZNot Avail.49 462994.5ENE 11 4449
Keswick06:00ZNot Avail.49 428994.2SSE 10 45265
Fair Isle06:00ZPartly Cloudy49 N/A71005.9E 21 Gusting to 34 187
Fairford Royal Air Force Base05:56ZMist49 476992.0ENE 7 46285
Mildenhall Royal Air Force Base05:56ZMist49 496993.2CALM4932
Stornoway06:00ZNot Avail.49 4114996.9ESE 17 4329
Valley06:00ZCloudy49 469990.7ENE 3 493
Lyneham06:00ZNot Avail.49 459992.0E 4 48475
Portglenone06:00ZNot Avail.48 437992.0ENE 6 45209
Shoeburyness06:00ZFog48 481.12993.2SSE 2 486
Sennybridge06:00ZHaze48 444991.7NNE 5 461007
Rhyl06:00ZNot Avail.48 444992.0ESE 2 48252
Warcop Range06:00ZNot Avail.48 439994E 22 Gusting to 32 41744
Carlisle06:00ZNot Avail.48 455995.4N 4891
Brize Norton06:00ZHaze48 463992.4E 5 46288
Lakenheath Royal Air Force Base05:57ZMist48 486992.7E 3 4832
Cranfield06:20ZMist48 481.5992.2NE 5 46364
Glasgow Airport06:20ZMostly Cloudy48 436997.1ENE 14 4226
Wick06:00ZHaze48 4341002ESE 14 42127
Kirkwall Airport06:00ZNot Avail.48 4271003ESE 19 Gusting to 26 4168
Humberside06:20ZMist48 481.25994.2NNE 4 47101
Belfast / Harbour06:20ZClear48 457993.1NNE 4 4716
Belfast / Aldergrove Airport06:00ZNot Avail.48 447992.0E 13 43265
Glenanne06:00ZHaze47 447991.7SE 7 44528
Pershore06:00ZHaze47 453992.7ENE 5 45104
Strathallan06:00ZHaze47 426999NNE 7 44114
Altnaharra06:00ZNot Avail.47 4171000.5NNE 7 44265
Lossiemouth06:00ZClear47 4171000.7E 4 4542
Boulmer06:00ZMist47 463997.2N 4 4575
Leuchars06:00ZHaze47 444999.0ENE 11 4239
Tain Range06:00ZHaze47 4371000.4E 13 4113
Hawarden06:00ZHaze47 454992.7ESE 5 4532
Blackpool Airport06:00ZNot Avail.47 436E 9 4332
Ballypatrick Forest06:00ZHaze46 437993.7SE 18 Gusting to 34 39511
Little Rissington06:00ZNot Avail.46 451.5992.0ENE 6 43705
Lake Vyrnwy06:00ZNot Avail.46 442992.4ENE 4 441181
Capel Curig06:00ZNot Avail.46 427992.2NNW 1 46708
Dundrennan06:00ZHaze46 445993.4ENE 24 Gusting to 32 38374
Prestwick Rnas06:00ZNot Avail.46 427995ENE 9 4185
Inverbervie06:00ZHaze46 4341000.2ENE 11 41439
Aviemore06:00ZNot Avail.46 3911999.0NNE 2 46721
Loch Glascanoch06:00ZNot Avail.46 389999.5SSE 9 41869
Waddington06:00ZMist46 452.5993.5N 4 44223
Wittering06:00ZMist46 451.87992.9NNE 5 44275
Leeming06:00ZMist46 442995.2N 6 43131
Kinloss06:00ZHaze46 4261000.2E 4 4422
Prestwick Airport06:20ZClear46 434995.1ENE 4 4465
Edinburgh Airport06:20ZCloudy46 464997.2ENE 11 41134
Aberdeen / Dyce06:00ZHaze46 4441001.2S 2 46213
Shawbury06:00ZHaze46 443992.7ESE 5 44249
Tees-Side06:20ZMist46 451.87995.2NNE 6 43121
Newcastle 06:20ZMist46 463996.2ENE 6 43265
Liverpool Airport 06:20ZClear46 434992.1E 9 4185
Birmingham / Airport06:20ZMist46 451.37992.2NE 5 44324
Bedford06:00ZMist45 451.25993.2ENE 3 45278
Church Lawford06:00ZMist45 452.75992.7NE 5 42351
Nottingham Weather Centre06:00ZMist45 441.75993.7NNE 6 42383
Fylingdales06:00ZNot Avail.45 452E 14 39859
Redesdale06:00ZNot Avail.45 443996.9ESE 5 42692
Shap06:00ZNot Avail.45 443995.2ESE 10 40816
Charterhall06:00ZMist45 444997.4NE 8 41367
Tulloch Bridge06:00ZNot Avail.45 4010999.2ENE 4 43777
Cranwell06:00ZMist45 442.25993.5NNW 5 42219
Coningsby Royal Air Force Base06:00ZMist45 443993.2WNW 3 4522
Inverness / Dalcross06:20ZClear45 4351000.1N 3 4529
East Midlands06:20ZMist45 452.25993.2E 5 42308
Leeds And Bradford06:20ZMist45 450.62994.3NE 9 40682
Bingley06:00ZMist44 N/A1.12994.7E 6 859
Loftus Samos06:00ZNot Avail.44 442995.2ESE 11 38190
Spadeadam06:00ZMist44 442995.9ENE 15 37935
Eskdalemuir06:00ZMist44 436996.2NNE 14 37793
Drumalbin06:00ZNot Avail.43 433996.7ENE 12 37803
Linton-On-Ouse06:00ZFog43 430.18994.9NW 7 3952
Cairngorm06:00ZNot Avail.41 3311SE 51 Gusting to 70 274084
Glen Ogle06:00ZNot Avail.40 N/A6ESE 9 1850
Great Dun Fell06:00ZNot Avail.38 N/A9E 21 Gusting to 29 2778
Aboyne06:00ZFog34 342.251001.5WSW 1 34459